TimeMDT,TemperatureF,Dew PointF,Humidity,Sea Level PressureIn,VisibilityMPH,Wind Direction,Wind SpeedMPH,Gust SpeedMPH,PrecipitationIn,Events,Conditions,WindDirDegrees,DateUTC
12:54 AM,63.0,51.1,65,30.01,10.0,South,6.9,-,N/A,,Clear,170,2013-09-05 06:54:00
1:54 AM,60.1,51.1,72,30.01,10.0,SE,5.8,-,N/A,,Clear,140,2013-09-05 07:54:00
2:54 AM,59.0,51.1,75,30.00,10.0,SSE,5.8,-,N/A,,Clear,160,2013-09-05 08:54:00
3:54 AM,57.0,51.1,81,30.01,10.0,SE,6.9,-,N/A,,Clear,140,2013-09-05 09:54:00
4:54 AM,57.9,51.1,78,29.99,10.0,SSE,6.9,-,N/A,,Clear,150,2013-09-05 10:54:00
5:54 AM,57.9,50.0,75,29.99,10.0,East,5.8,-,N/A,,Clear,100,2013-09-05 11:54:00
6:54 AM,57.9,51.1,78,30.02,10.0,SSE,8.1,-,N/A,,Clear,150,2013-09-05 12:54:00
7:54 AM,61.0,52.0,72,30.03,10.0,Calm,Calm,-,N/A,,Clear,0,2013-09-05 13:54:00
8:54 AM,71.1,52.0,51,30.01,10.0,Calm,Calm,-,N/A,,Clear,0,2013-09-05 14:54:00
9:54 AM,75.9,55.0,48,29.99,10.0,Calm,Calm,-,N/A,,Clear,0,2013-09-05 15:54:00
10:54 AM,82.0,55.0,39,29.97,10.0,Calm,Calm,-,N/A,,Clear,0,2013-09-05 16:54:00
11:54 AM,87.1,51.1,29,29.95,10.0,NW,3.5,-,N/A,,Clear,320,2013-09-05 17:54:00
12:54 PM,89.1,51.1,27,29.93,10.0,Calm,Calm,-,N/A,,Clear,0,2013-09-05 18:54:00
1:54 PM,91.0,48.9,23,29.91,10.0,SSE,9.2,-,N/A,,Clear,150,2013-09-05 19:54:00
2:54 PM,91.9,46.9,21,29.89,10.0,Calm,Calm,-,N/A,,Clear,0,2013-09-05 20:54:00
3:54 PM,89.1,45.0,22,29.89,10.0,SW,16.1,-,N/A,,Clear,230,2013-09-05 21:54:00
4:54 PM,79.0,54.0,42,29.98,10.0,SSW,40.3,56.4,N/A,,Squalls,210,2013-09-05 22:54:00
5:54 PM,66.9,62.1,84,29.98,10.0,WSW,13.8,24.2,0.01,Rain,Light Rain,240,2013-09-05 23:54:00
6:54 PM,73.0,60.1,64,29.93,10.0,SSE,4.6,-,0.00,,Clear,150,2013-09-06 00:54:00
7:54 PM,69.1,57.9,68,29.94,10.0,ESE,5.8,-,N/A,,Clear,110,2013-09-06 01:54:00
8:54 PM,64.0,57.9,80,29.94,10.0,ESE,8.1,-,N/A,,Clear,120,2013-09-06 02:54:00
9:54 PM,62.1,57.0,84,29.97,10.0,Calm,Calm,-,N/A,,Clear,0,2013-09-06 03:54:00
10:54 PM,64.0,57.9,80,29.94,10.0,SSW,5.8,-,N/A,,Mostly Cloudy,200,2013-09-06 04:54:00
11:54 PM,66.0,60.1,81,30.02,7.0,WSW,28.8,46.0,0.02,Rain,Light Rain,240,2013-09-06 05:54:00